Time;durP1;ratioP1;P1;durP2;ratioP2;P2;SDS_P1;SDS_P2;PMS_P1;PMS_P2;Temp;Humidity;BMP_temperature;BMP_pressure;BME280_temperature;BME280_humidity;BME280_pressure;Samples;Min_cycle;Max_cycle;Signal;HPM_P1;HPM_P2
2022/05/13 00:01:33;;;;;;;19.25;3.25;;;13.20;99.90;;;;;;5073223;27;35870;-76
2022/05/13 00:03:59;;;;;;;17.83;3.80;;;13.10;99.90;;;;;;5068364;27;38701;-77
2022/05/13 00:06:25;;;;;;;12.73;2.88;;;13.10;99.90;;;;;;5049712;28;39369;-78
2022/05/13 00:08:51;;;;;;;14.10;2.95;;;13.10;99.90;;;;;;5052294;28;38317;-76
2022/05/13 00:11:18;;;;;;;17.02;3.65;;;13.10;99.90;;;;;;5049645;28;38523;-77
2022/05/13 00:13:44;;;;;;;20.20;3.78;;;13.10;99.90;;;;;;5107973;27;38134;-77
2022/05/13 00:16:10;;;;;;;24.75;4.20;;;13.10;99.90;;;;;;5076632;27;39336;-77
2022/05/13 00:18:36;;;;;;;22.85;5.32;;;13.10;99.90;;;;;;5069772;28;39877;-77
2022/05/13 00:21:02;;;;;;;16.45;4.10;;;13.10;99.90;;;;;;5073306;27;39344;-77
2022/05/13 00:23:28;;;;;;;12.80;4.10;;;13.10;99.90;;;;;;5088188;27;37619;-77
2022/05/13 00:25:55;;;;;;;21.33;4.13;;;13.10;99.90;;;;;;5081929;27;39839;-77
2022/05/13 00:28:21;;;;;;;18.25;4.57;;;13.10;99.90;;;;;;5079521;27;37851;-77
2022/05/13 00:30:48;;;;;;;25.58;5.28;;;13.10;99.90;;;;;;5080548;28;37629;-77
2022/05/13 00:33:15;;;;;;;24.02;4.95;;;13.10;99.90;;;;;;5079069;27;38460;-77
2022/05/13 00:35:42;;;;;;;18.88;4.85;;;13.10;99.90;;;;;;5071281;27;36996;-77
2022/05/13 00:38:09;;;;;;;25.02;5.15;;;13.10;99.90;;;;;;5081964;27;38455;-77
2022/05/13 00:40:36;;;;;;;22.20;5.00;;;13.10;99.90;;;;;;5072514;28;38182;-77
2022/05/13 00:43:07;;;;;;;23.70;4.57;;;13.20;99.90;;;;;;5067454;28;38525;-77
2022/05/13 00:45:34;;;;;;;25.10;6.22;;;13.30;99.90;;;;;;5050792;27;40402;-77
2022/05/13 00:48:01;;;;;;;22.23;4.88;;;13.30;99.90;;;;;;5064649;28;39332;-77
2022/05/13 00:50:30;;;;;;;23.70;5.53;;;13.30;99.90;;;;;;5070210;28;46712;-77
2022/05/13 00:52:56;;;;;;;18.52;5.13;;;13.30;99.90;;;;;;5074141;28;38116;-77
2022/05/13 00:55:31;;;;;;;28.10;5.88;;;13.30;99.90;;;;;;5078921;27;38865;-77
2022/05/13 00:57:58;;;;;;;27.40;4.97;;;13.30;99.90;;;;;;5066890;28;39128;-77
2022/05/13 01:00:25;;;;;;;28.45;4.75;;;13.30;99.90;;;;;;5086942;27;38993;-77
2022/05/13 01:02:51;;;;;;;18.35;4.40;;;13.30;99.90;;;;;;5074131;28;37880;-77
2022/05/13 01:05:19;;;;;;;21.92;4.82;;;13.30;99.90;;;;;;5073781;27;39507;-77
2022/05/13 01:07:45;;;;;;;19.10;4.20;;;13.30;99.90;;;;;;5075352;28;39219;-77
2022/05/13 01:10:21;;;;;;;23.35;4.88;;;13.30;99.90;;;;;;5076852;27;37885;-77
2022/05/13 01:12:53;;;;;;;29.58;5.25;;;13.30;99.90;;;;;;5077011;28;37846;-77
2022/05/13 01:15:43;;;;;;;21.52;4.47;;;13.40;99.90;;;;;;5067815;28;39742;-77
2022/05/13 01:18:10;;;;;;;31.02;4.90;;;13.40;99.90;;;;;;5085332;27;38449;-77
2022/05/13 01:20:50;;;;;;;18.45;4.10;;;13.40;99.90;;;;;;5076952;27;37732;-77
2022/05/13 01:23:30;;;;;;;19.38;4.63;;;13.40;99.90;;;;;;5076037;27;37090;-77
2022/05/13 01:26:09;;;;;;;31.38;6.07;;;13.40;99.90;;;;;;5080947;28;39236;-77
2022/05/13 01:28:40;;;;;;;24.60;5.13;;;13.40;99.90;;;;;;5064939;28;48688;-77
2022/05/13 01:31:12;;;;;;;25.98;5.45;;;13.50;99.90;;;;;;5062118;28;37551;-77
2022/05/13 01:33:41;;;;;;;22.77;4.57;;;13.40;99.90;;;;;;5059697;28;47231;-77
2022/05/13 01:36:12;;;;;;;22.40;4.05;;;13.50;99.90;;;;;;5064969;28;39474;-77
2022/05/13 01:38:40;;;;;;;28.97;4.90;;;13.50;99.90;;;;;;5074065;27;39860;-77
2022/05/13 01:41:08;;;;;;;25.30;4.40;;;13.50;99.90;;;;;;5076069;27;38031;-77
2022/05/13 01:43:34;;;;;;;19.23;4.20;;;13.50;99.90;;;;;;5073796;28;38881;-77
2022/05/13 01:46:01;;;;;;;19.60;5.13;;;13.50;99.90;;;;;;5070601;28;39191;-77
2022/05/13 01:48:28;;;;;;;20.50;4.10;;;13.60;99.90;;;;;;5072108;28;48227;-77
2022/05/13 01:50:55;;;;;;;25.67;5.00;;;13.60;99.90;;;;;;5078616;27;38070;-77
2022/05/13 01:53:24;;;;;;;18.02;4.03;;;13.60;99.90;;;;;;5070809;28;38148;-77
2022/05/13 01:55:50;;;;;;;24.52;3.75;;;13.60;99.90;;;;;;5074695;28;38201;-77
2022/05/13 01:58:19;;;;;;;18.95;3.30;;;13.60;99.90;;;;;;5076297;27;37339;-77
2022/05/13 02:00:47;;;;;;;19.92;4.28;;;13.60;99.90;;;;;;5075250;27;38592;-77
2022/05/13 02:05:58;;;;;;;21.05;3.97;;;13.60;99.90;;;;;;5077051;27;39166;-77
2022/05/13 02:08:26;;;;;;;25.17;4.45;;;13.50;99.90;;;;;;5069758;27;38876;-77
2022/05/13 02:10:52;;;;;;;19.67;4.50;;;13.50;99.90;;;;;;5076452;28;37458;-77
2022/05/13 02:13:18;;;;;;;22.83;3.97;;;13.50;99.90;;;;;;5074669;28;37304;-77
2022/05/13 02:15:44;;;;;;;20.75;3.83;;;13.40;99.90;;;;;;5087858;28;40443;-76
2022/05/13 02:18:10;;;;;;;12.98;3.05;;;13.40;99.90;;;;;;5073261;28;39481;-77
2022/05/13 02:20:38;;;;;;;19.25;3.42;;;13.40;99.90;;;;;;5073574;28;38721;-77
2022/05/13 02:23:04;;;;;;;21.02;3.47;;;13.40;99.90;;;;;;5073918;28;37600;-77
2022/05/13 02:25:30;;;;;;;15.25;3.65;;;13.40;99.90;;;;;;5077654;28;39494;-77
2022/05/13 02:27:57;;;;;;;15.38;3.72;;;13.40;99.90;;;;;;5068575;28;39767;-77
2022/05/13 02:30:25;;;;;;;15.40;2.90;;;13.30;99.90;;;;;;5073617;27;38926;-77
2022/05/13 02:32:51;;;;;;;14.35;3.08;;;13.30;99.90;;;;;;5074981;28;40282;-77
2022/05/13 02:35:18;;;;;;;16.23;3.10;;;13.20;99.90;;;;;;5053809;28;38997;-77
2022/05/13 02:37:45;;;;;;;16.45;3.25;;;13.20;99.90;;;;;;5053694;28;38358;-77
2022/05/13 02:40:12;;;;;;;16.67;3.88;;;13.20;99.90;;;;;;5047144;27;38579;-77
2022/05/13 02:42:38;;;;;;;15.77;3.08;;;13.20;99.90;;;;;;5052341;28;37983;-77
2022/05/13 02:45:08;;;;;;;17.15;2.97;;;13.10;99.90;;;;;;5049208;28;39572;-77
2022/05/13 02:47:34;;;;;;;12.57;3.22;;;13.10;99.90;;;;;;5065827;28;38326;-76
2022/05/13 02:50:21;;;;;;;14.88;3.22;;;13.10;99.90;;;;;;5063143;28;38023;-77
2022/05/13 02:52:49;;;;;;;18.17;3.97;;;13.10;99.90;;;;;;5063655;27;47470;-77
2022/05/13 02:55:16;;;;;;;12.95;2.75;;;13.00;99.90;;;;;;5079927;27;37761;-76
2022/05/13 02:57:43;;;;;;;15.88;3.05;;;13.00;99.90;;;;;;5065462;28;38687;-77
2022/05/13 03:00:09;;;;;;;14.75;2.92;;;12.90;99.90;;;;;;5063117;28;37051;-77
2022/05/13 03:02:36;;;;;;;15.98;3.15;;;12.90;99.90;;;;;;5073154;27;36581;-77
2022/05/13 03:05:03;;;;;;;15.43;3.08;;;12.90;99.90;;;;;;5068953;28;38522;-76
2022/05/13 03:07:29;;;;;;;14.65;4.57;;;12.80;99.90;;;;;;5076583;28;37792;-76
2022/05/13 03:09:55;;;;;;;18.50;4.05;;;12.80;99.90;;;;;;5067282;28;37624;-77
2022/05/13 03:12:21;;;;;;;13.95;3.38;;;12.80;99.90;;;;;;5073050;27;37129;-77
2022/05/13 03:14:48;;;;;;;11.60;3.10;;;12.80;99.90;;;;;;5070857;28;39397;-77
2022/05/13 03:17:14;;;;;;;18.77;3.28;;;12.70;99.90;;;;;;5075022;27;37792;-77
2022/05/13 03:19:40;;;;;;;14.02;3.45;;;12.70;99.90;;;;;;5085730;27;38133;-77
2022/05/13 03:22:06;;;;;;;16.27;3.33;;;12.70;99.90;;;;;;5084091;27;35987;-76
2022/05/13 03:24:34;;;;;;;15.77;3.67;;;12.70;99.90;;;;;;5085851;28;39919;-77
2022/05/13 03:27:00;;;;;;;14.90;3.03;;;12.70;99.90;;;;;;5078160;27;38522;-77
2022/05/13 03:29:27;;;;;;;14.25;3.30;;;12.70;99.90;;;;;;5080031;27;39414;-77
2022/05/13 03:31:54;;;;;;;12.30;3.65;;;12.70;99.90;;;;;;5083142;27;37637;-77
2022/05/13 03:34:23;;;;;;;13.27;3.85;;;12.60;99.90;;;;;;5078659;27;39770;-77
2022/05/13 03:36:49;;;;;;;19.77;4.00;;;12.70;99.90;;;;;;5082373;28;39605;-77
2022/05/13 03:39:16;;;;;;;17.48;4.03;;;12.70;99.90;;;;;;5078525;27;38590;-76
2022/05/13 03:41:43;;;;;;;17.13;4.03;;;12.70;99.90;;;;;;5079502;27;36587;-77
2022/05/13 03:44:10;;;;;;;15.45;4.38;;;12.70;99.90;;;;;;5065496;27;38402;-77
2022/05/13 03:46:36;;;;;;;13.48;3.85;;;12.70;99.90;;;;;;5068618;28;38920;-77
2022/05/13 03:49:02;;;;;;;16.45;4.10;;;12.70;99.90;;;;;;5054085;28;37928;-77
2022/05/13 03:51:29;;;;;;;17.35;3.97;;;12.70;99.90;;;;;;5086062;28;38205;-77
2022/05/13 03:53:55;;;;;;;19.52;4.60;;;12.70;99.90;;;;;;5068617;28;39031;-77
2022/05/13 03:56:21;;;;;;;22.45;6.43;;;12.70;99.90;;;;;;5048710;28;39167;-77
2022/05/13 03:58:48;;;;;;;21.85;5.90;;;12.70;99.90;;;;;;5054996;28;38228;-76
2022/05/13 04:01:14;;;;;;;18.35;5.35;;;12.70;99.90;;;;;;5051976;28;38573;-77
2022/05/13 04:03:40;;;;;;;24.75;6.00;;;12.60;99.90;;;;;;5074242;27;39032;-77
2022/05/13 04:08:56;;;;;;;25.63;6.82;;;12.60;99.90;;;;;;5079341;28;37949;-77
2022/05/13 04:11:27;;;;;;;23.60;5.32;;;12.70;99.90;;;;;;5083705;27;38017;-77
2022/05/13 04:16:39;;;;;;;18.30;5.90;;;12.70;99.90;;;;;;5051601;28;49639;-77
2022/05/13 04:19:05;;;;;;;24.63;6.32;;;12.70;99.90;;;;;;5049835;28;39508;-77
2022/05/13 04:21:34;;;;;;;22.98;5.68;;;12.70;99.90;;;;;;5063917;27;37341;-77
2022/05/13 04:24:05;;;;;;;28.00;6.53;;;12.70;99.90;;;;;;5076819;28;39054;-77
2022/05/13 04:26:32;;;;;;;24.85;5.45;;;12.70;99.90;;;;;;5069784;27;45874;-77
2022/05/13 04:29:00;;;;;;;27.35;5.68;;;12.60;99.90;;;;;;5078184;27;38213;-77
2022/05/13 04:31:32;;;;;;;20.58;5.20;;;12.60;99.90;;;;;;5072271;27;37329;-77
2022/05/13 04:33:58;;;;;;;22.45;5.45;;;12.70;99.90;;;;;;5072574;27;39412;-77
2022/05/13 04:36:26;;;;;;;28.23;5.47;;;12.60;99.90;;;;;;5082918;27;36207;-76
2022/05/13 04:38:53;;;;;;;26.05;4.90;;;12.70;99.90;;;;;;5073909;27;38996;-77
2022/05/13 04:44:20;;;;;;;29.65;6.20;;;12.80;99.90;;;;;;5026721;28;39889;-77
2022/05/13 04:46:47;;;;;;;23.65;4.88;;;12.90;99.90;;;;;;5083023;27;20076;-77
2022/05/13 04:49:13;;;;;;;26.23;5.20;;;12.90;99.90;;;;;;5078656;27;38211;-77
2022/05/13 04:51:43;;;;;;;24.02;4.82;;;13.00;99.90;;;;;;5079371;28;37208;-77
2022/05/13 04:54:09;;;;;;;24.13;4.88;;;13.00;99.90;;;;;;5081806;27;39715;-76
2022/05/13 04:56:36;;;;;;;25.88;4.88;;;13.00;99.90;;;;;;5065102;28;37374;-77
2022/05/13 04:59:03;;;;;;;27.65;5.53;;;13.10;99.90;;;;;;5074528;28;38302;-77
2022/05/13 05:01:29;;;;;;;30.88;5.13;;;13.10;99.90;;;;;;5072913;28;46729;-77
2022/05/13 05:03:55;;;;;;;21.25;5.03;;;13.20;99.90;;;;;;5073446;27;38843;-77
2022/05/13 05:06:22;;;;;;;16.92;4.55;;;13.10;99.90;;;;;;5063673;28;38275;-77
2022/05/13 05:08:53;;;;;;;24.92;4.60;;;13.20;99.90;;;;;;5056957;28;37770;-77
2022/05/13 05:11:22;;;;;;;21.13;3.90;;;13.20;99.90;;;;;;5070193;27;36562;-77
2022/05/13 05:13:50;;;;;;;14.85;3.47;;;13.20;99.90;;;;;;5079554;27;38547;-77
2022/05/13 05:16:22;;;;;;;20.02;3.60;;;13.30;99.90;;;;;;5069169;27;37995;-77
2022/05/13 05:18:49;;;;;;;25.88;4.22;;;13.40;99.90;;;;;;5084980;27;38351;-77
2022/05/13 05:21:15;;;;;;;13.52;3.30;;;13.40;99.90;;;;;;5057078;28;36252;-77
2022/05/13 05:23:42;;;;;;;15.63;3.13;;;13.50;99.90;;;;;;5070044;27;37634;-77
2022/05/13 05:26:09;;;;;;;16.23;3.22;;;13.50;99.90;;;;;;5077227;27;37685;-77
2022/05/13 05:28:37;;;;;;;16.85;3.15;;;13.60;99.90;;;;;;5061926;27;37270;-77
2022/05/13 05:31:04;;;;;;;16.55;3.13;;;13.60;99.90;;;;;;5057962;28;36166;-77
2022/05/13 05:33:30;;;;;;;11.85;3.00;;;13.70;99.90;;;;;;5062734;28;38897;-78
2022/05/13 05:35:56;;;;;;;21.98;3.50;;;13.70;99.90;;;;;;5060689;28;37447;-77
2022/05/13 05:38:23;;;;;;;14.35;3.03;;;13.80;99.90;;;;;;5068930;27;39421;-78
2022/05/13 05:40:49;;;;;;;17.33;2.92;;;13.80;99.90;;;;;;5060323;28;36954;-77
2022/05/13 05:43:17;;;;;;;10.60;2.60;;;13.90;99.90;;;;;;5064602;28;37525;-77
2022/05/13 05:45:43;;;;;;;12.65;2.08;;;13.90;99.90;;;;;;5072867;28;39133;-77
2022/05/13 05:48:12;;;;;;;8.80;2.00;;;14.00;99.90;;;;;;5075125;27;38662;-77
2022/05/13 05:50:38;;;;;;;12.38;2.47;;;14.00;99.90;;;;;;5066956;27;34358;-78
2022/05/13 05:53:04;;;;;;;10.13;1.92;;;14.00;99.90;;;;;;5073046;27;38581;-79
2022/05/13 05:58:17;;;;;;;9.82;1.90;;;14.10;99.90;;;;;;5079807;27;39465;-79
2022/05/13 06:00:46;;;;;;;10.10;1.83;;;14.20;99.90;;;;;;5077626;27;37941;-79
2022/05/13 06:03:13;;;;;;;11.00;1.70;;;14.20;99.90;;;;;;5078328;28;38869;-78
2022/05/13 06:05:40;;;;;;;12.98;2.10;;;14.30;99.90;;;;;;5068787;28;38128;-78
2022/05/13 06:08:07;;;;;;;9.30;1.40;;;14.40;99.90;;;;;;5044990;27;38001;-79
2022/05/13 06:10:35;;;;;;;5.45;1.60;;;14.50;99.90;;;;;;5047124;28;35043;-78
2022/05/13 06:13:02;;;;;;;8.32;1.58;;;14.50;99.90;;;;;;5048334;28;39258;-78
2022/05/13 06:15:29;;;;;;;3.58;1.30;;;14.50;99.90;;;;;;5074624;28;49043;-78
2022/05/13 06:17:56;;;;;;;6.60;1.48;;;14.50;99.90;;;;;;5075017;28;40069;-78
2022/05/13 06:20:25;;;;;;;8.98;1.77;;;14.50;99.90;;;;;;5068794;27;38903;-79
2022/05/13 06:22:52;;;;;;;5.03;1.30;;;14.70;99.90;;;;;;5073477;28;42021;-78
2022/05/13 06:25:19;;;;;;;7.10;1.42;;;14.60;99.90;;;;;;5075067;27;38929;-78
2022/05/13 06:27:47;;;;;;;12.40;1.50;;;14.60;99.90;;;;;;5077545;27;38163;-78
2022/05/13 06:30:17;;;;;;;7.38;1.58;;;14.60;99.90;;;;;;5078592;27;37967;-78
2022/05/13 06:32:43;;;;;;;7.68;1.42;;;14.70;99.90;;;;;;5076449;28;40183;-78
2022/05/13 06:35:10;;;;;;;7.03;1.40;;;14.80;99.90;;;;;;5074354;27;39518;-78
2022/05/13 06:37:38;;;;;;;8.18;1.10;;;15.00;99.90;;;;;;5078127;27;38150;-78
2022/05/13 06:40:06;;;;;;;11.32;1.77;;;15.00;99.90;;;;;;5076539;27;37386;-77
2022/05/13 06:42:32;;;;;;;6.95;1.35;;;15.20;99.90;;;;;;5062299;28;38729;-78
2022/05/13 06:44:58;;;;;;;8.02;1.80;;;15.30;99.90;;;;;;5077229;28;38087;-77
2022/05/13 06:47:24;;;;;;;3.80;1.17;;;15.40;99.90;;;;;;5073259;28;38651;-77
2022/05/13 06:49:51;;;;;;;7.25;1.70;;;15.30;99.90;;;;;;5055352;27;37860;-80
2022/05/13 06:52:17;;;;;;;5.60;1.90;;;15.30;99.90;;;;;;5053650;28;37304;-77
2022/05/13 06:54:43;;;;;;;6.68;1.55;;;15.40;99.90;;;;;;5088120;27;39038;-77
2022/05/13 06:57:10;;;;;;;9.18;1.60;;;15.50;99.90;;;;;;5059952;27;37745;-78
2022/05/13 06:59:37;;;;;;;3.17;1.00;;;15.70;99.90;;;;;;5090203;27;37448;-75
2022/05/13 07:02:05;;;;;;;6.45;1.55;;;15.80;99.90;;;;;;5085955;27;40431;-76
2022/05/13 07:04:31;;;;;;;6.25;1.15;;;15.70;99.90;;;;;;5081306;28;39148;-76
2022/05/13 07:06:59;;;;;;;5.75;1.85;;;15.80;99.90;;;;;;5071834;28;38605;-76
2022/05/13 07:09:26;;;;;;;7.82;1.52;;;15.90;99.90;;;;;;5086659;27;36113;-76
2022/05/13 07:11:54;;;;;;;8.40;1.27;;;15.90;99.90;;;;;;5076708;28;39813;-80
2022/05/13 07:14:23;;;;;;;7.63;1.38;;;16.10;99.90;;;;;;5075276;28;37995;-80
2022/05/13 07:16:49;;;;;;;5.53;1.30;;;16.20;99.90;;;;;;5076010;28;37923;-80
2022/05/13 07:19:16;;;;;;;5.93;1.63;;;16.10;99.90;;;;;;5083715;28;37885;-84
2022/05/13 07:21:42;;;;;;;6.75;1.27;;;15.80;99.90;;;;;;5080053;28;41007;-83
2022/05/13 07:24:08;;;;;;;8.10;2.25;;;16.00;99.90;;;;;;5072887;28;40680;-82
2022/05/13 07:26:35;;;;;;;7.70;1.50;;;16.10;99.90;;;;;;5077015;28;38206;-81
2022/05/13 07:29:01;;;;;;;3.88;1.02;;;16.30;99.90;;;;;;5080080;28;36079;-83
2022/05/13 07:31:27;;;;;;;8.05;1.40;;;16.30;99.90;;;;;;5079037;28;45916;-82
2022/05/13 07:33:53;;;;;;;8.50;1.60;;;16.30;99.90;;;;;;5077746;28;39653;-82
2022/05/13 07:36:19;;;;;;;5.05;1.75;;;16.30;99.90;;;;;;5075624;27;39577;-82
2022/05/13 07:41:44;;;;;;;4.97;1.00;;;16.10;99.90;;;;;;5036358;28;49009;-83
2022/05/13 07:44:10;;;;;;;8.35;1.70;;;16.10;99.90;;;;;;5071227;27;39204;-84
2022/05/13 07:46:38;;;;;;;5.40;1.33;;;16.10;99.90;;;;;;5080985;27;38089;-83
2022/05/13 07:49:06;;;;;;;10.50;1.85;;;15.90;99.90;;;;;;5062115;28;36700;-81
2022/05/13 07:51:33;;;;;;;3.88;1.10;;;15.80;99.90;;;;;;5081384;27;38864;-83
2022/05/13 07:53:59;;;;;;;8.10;1.30;;;15.80;99.90;;;;;;5077887;28;37343;-83
2022/05/13 07:56:26;;;;;;;2.85;1.23;;;15.80;99.90;;;;;;5087284;27;38110;-82
2022/05/13 07:58:52;;;;;;;7.10;1.17;;;16.00;99.90;;;;;;5086062;27;37540;-82
2022/05/13 08:01:18;;;;;;;6.95;1.25;;;16.40;99.90;;;;;;5083422;28;38736;-82
2022/05/13 08:03:46;;;;;;;9.02;1.48;;;16.40;99.90;;;;;;5072556;28;38585;-83
2022/05/13 08:06:13;;;;;;;4.47;1.05;;;16.30;99.90;;;;;;5082651;27;38707;-84
2022/05/13 08:08:43;;;;;;;6.03;1.38;;;16.30;99.90;;;;;;5080107;28;36264;-81
2022/05/13 08:11:14;;;;;;;7.70;1.17;;;16.70;99.90;;;;;;5079155;28;38684;-83
2022/05/13 08:13:41;;;;;;;5.05;1.00;;;17.00;99.90;;;;;;5099979;27;39602;-84
2022/05/13 08:16:13;;;;;;;7.78;1.55;;;17.00;99.90;;;;;;5069911;28;38769;-83
2022/05/13 08:18:40;;;;;;;5.43;1.27;;;17.00;99.90;;;;;;5074888;28;37190;-83
2022/05/13 08:21:07;;;;;;;8.48;1.52;;;17.20;99.90;;;;;;5076603;27;40666;-85
2022/05/13 08:23:34;;;;;;;8.73;1.63;;;17.50;99.90;;;;;;5079011;27;38247;-85
2022/05/13 08:26:00;;;;;;;5.22;0.95;;;17.50;99.90;;;;;;5078222;28;37156;-85
2022/05/13 08:28:26;;;;;;;4.72;1.27;;;17.30;99.90;;;;;;5078996;28;39279;-84
2022/05/13 08:30:53;;;;;;;6.10;1.15;;;16.80;99.90;;;;;;5076191;28;39562;-81
2022/05/13 08:33:19;;;;;;;6.00;1.33;;;16.30;99.90;;;;;;5072157;28;39446;-82
2022/05/13 08:35:51;;;;;;;5.18;1.50;;;16.20;99.90;;;;;;5084003;28;36978;-84
2022/05/13 08:38:21;;;;;;;;;;;16.20;99.90;;;;;;5090256;27;37163;-85
2022/05/13 08:40:53;;;;;;;5.47;1.50;;;16.40;99.90;;;;;;5114948;27;39081;-84
2022/05/13 08:43:23;;;;;;;4.07;1.30;;;16.40;99.90;;;;;;5077923;28;38307;-82
2022/05/13 08:45:54;;;;;;;6.47;1.38;;;16.30;99.90;;;;;;5100088;27;38804;-84
2022/05/13 08:48:30;;;;;;;10.48;1.60;;;16.00;99.90;;;;;;5056100;27;37680;-83
2022/05/13 08:50:56;;;;;;;5.28;1.00;;;15.80;99.90;;;;;;5062318;28;38592;-83
2022/05/13 08:53:33;;;;;;;7.78;1.30;;;15.70;99.90;;;;;;5055189;27;38055;-85
2022/05/13 08:56:05;;;;;;;6.93;1.52;;;15.80;99.90;;;;;;5058561;27;38162;-83
2022/05/13 08:58:38;;;;;;;7.78;1.52;;;16.10;99.90;;;;;;5083606;28;47659;-84
2022/05/13 09:01:11;;;;;;;7.07;1.80;;;16.70;99.90;;;;;;5080053;28;40229;-83
2022/05/13 09:03:47;;;;;;;5.85;0.95;;;17.40;99.90;;;;;;5084271;27;40278;-85
2022/05/13 09:06:24;;;;;;;3.97;0.90;;;17.90;99.90;;;;;;5084705;28;38637;-84
2022/05/13 09:08:51;;;;;;;4.85;1.60;;;18.50;99.90;;;;;;5091431;27;36097;-82
2022/05/13 09:11:29;;;;;;;7.22;1.77;;;18.40;99.90;;;;;;5080679;27;39496;-85
2022/05/13 09:14:18;;;;;;;8.38;2.03;;;18.20;99.90;;;;;;5076938;27;39417;-83
2022/05/13 09:17:11;;;;;;;10.82;1.30;;;18.70;99.90;;;;;;5057628;28;48709;-84
2022/05/13 09:19:49;;;;;;;7.32;2.22;;;19.00;99.90;;;;;;5057808;28;47109;-83
2022/05/13 09:22:15;;;;;;;6.68;1.45;;;18.80;99.90;;;;;;5057870;27;38282;-84
2022/05/13 09:24:42;;;;;;;6.55;2.15;;;18.90;99.90;;;;;;5060831;28;38560;-84
2022/05/13 09:27:08;;;;;;;10.77;1.73;;;18.80;99.90;;;;;;5053694;28;38663;-84
2022/05/13 09:29:40;;;;;;;5.90;1.40;;;18.90;99.90;;;;;;5054158;28;36975;-83
2022/05/13 09:32:12;;;;;;;8.38;1.63;;;19.00;99.90;;;;;;5070333;27;39449;-83
2022/05/13 09:34:46;;;;;;;11.73;1.67;;;19.30;99.90;;;;;;5065627;27;38073;-85
2022/05/13 09:37:20;;;;;;;5.68;1.50;;;19.40;99.90;;;;;;5054919;28;39575;-84
2022/05/13 09:39:49;;;;;;;10.05;1.88;;;19.90;99.90;;;;;;5056526;28;37953;-83
2022/05/13 09:42:36;;;;;;;6.93;1.27;;;20.00;99.90;;;;;;5084380;27;41148;-85
2022/05/13 09:45:17;;;;;;;9.02;1.83;;;19.50;99.90;;;;;;5073991;28;39575;-84
2022/05/13 09:47:46;;;;;;;6.63;1.70;;;19.30;99.90;;;;;;5074518;28;47302;-83
2022/05/13 09:50:26;;;;;;;5.78;1.70;;;19.40;99.90;;;;;;5074464;27;36967;-84
2022/05/13 09:52:53;;;;;;;6.18;2.00;;;19.40;99.90;;;;;;5073499;28;37173;-85
2022/05/13 09:55:31;;;;;;;5.57;1.35;;;19.50;99.90;;;;;;5090081;27;37242;-85
2022/05/13 09:58:01;;;;;;;4.35;1.30;;;19.50;99.90;;;;;;5080788;28;39105;-84
2022/05/13 10:00:32;;;;;;;5.95;1.13;;;19.80;99.90;;;;;;5073014;28;48775;-83
2022/05/13 10:03:08;;;;;;;6.70;1.50;;;20.20;99.90;;;;;;5074989;28;38951;-83
2022/05/13 10:05:34;;;;;;;6.68;1.40;;;20.20;99.90;;;;;;5060634;28;47361;-84
2022/05/13 10:08:13;;;;;;;4.55;1.27;;;20.20;99.90;;;;;;5052752;28;38705;-84
2022/05/13 10:14:00;;;;;;;7.15;1.73;;;20.30;99.90;;;;;;5061508;27;49351;-82
2022/05/13 10:16:44;;;;;;;5.38;1.10;;;20.30;99.90;;;;;;5052893;28;39043;-83
2022/05/13 10:19:23;;;;;;;7.00;1.17;;;20.20;99.90;;;;;;5070163;27;37908;-83
2022/05/13 10:21:54;;;;;;;5.90;1.10;;;20.30;99.90;;;;;;5053337;28;37261;-82
2022/05/13 10:25:06;;;;;;;3.40;1.00;;;20.20;99.90;;;;;;5055320;28;39028;-84
2022/05/13 10:27:36;;;;;;;4.05;1.30;;;20.40;99.90;;;;;;5075827;27;48441;-83
2022/05/13 10:30:40;;;;;;;7.32;1.73;;;20.10;99.90;;;;;;5061763;27;38244;-83
2022/05/13 10:33:36;;;;;;;9.07;1.75;;;20.00;99.90;;;;;;5072478;28;47066;-82
2022/05/13 10:36:09;;;;;;;5.05;1.35;;;20.20;99.90;;;;;;5077895;27;37896;-82
2022/05/13 10:38:51;;;;;;;6.20;1.30;;;20.20;99.90;;;;;;5079093;28;37485;-83
2022/05/13 10:41:41;;;;;;;7.13;1.85;;;20.70;99.90;;;;;;5076635;27;38888;-82
2022/05/13 10:44:40;;;;;;;6.82;1.45;;;20.80;99.90;;;;;;5070555;27;37240;-83
2022/05/13 10:47:22;;;;;;;6.85;1.48;;;20.50;99.90;;;;;;5044208;28;39574;-83
2022/05/13 10:49:48;;;;;;;3.47;1.15;;;19.50;99.90;;;;;;5100077;27;39323;-83
2022/05/13 10:52:37;;;;;;;5.03;1.75;;;20.10;99.90;;;;;;5079177;28;38869;-82
2022/05/13 10:55:07;;;;;;;7.45;1.50;;;20.40;99.90;;;;;;5076426;28;37069;-82
2022/05/13 10:57:45;;;;;;;6.30;1.73;;;20.20;99.90;;;;;;5084569;27;39101;-84
2022/05/13 11:00:13;;;;;;;5.55;1.25;;;19.60;99.90;;;;;;5074284;28;38874;-83
2022/05/13 11:03:04;;;;;;;8.60;1.90;;;19.70;99.90;;;;;;5077870;28;37854;-83
2022/05/13 11:05:30;;;;;;;6.03;1.55;;;20.20;99.90;;;;;;5090006;28;47314;-83
2022/05/13 11:08:20;;;;;;;8.85;1.60;;;20.30;99.90;;;;;;5076938;28;39678;-83
2022/05/13 11:10:55;;;;;;;5.03;1.40;;;20.10;99.90;;;;;;5078653;28;48640;-82
2022/05/13 11:13:41;;;;;;;6.57;1.33;;;20.40;99.90;;;;;;5078639;27;39732;-82
2022/05/13 11:16:23;;;;;;;6.68;1.90;;;20.70;99.90;;;;;;5073259;28;38108;-81
2022/05/13 11:19:14;;;;;;;6.68;1.33;;;19.90;99.90;;;;;;5068082;27;39660;-81
2022/05/13 11:21:52;;;;;;;7.75;1.80;;;20.30;99.90;;;;;;5061294;28;47327;-82
2022/05/13 11:27:32;;;;;;;3.95;1.17;;;20.70;99.90;;;;;;5071218;27;36796;-81
2022/05/13 11:30:22;;;;;;;5.35;1.42;;;20.90;99.90;;;;;;5055947;28;39561;-82
2022/05/13 11:33:07;;;;;;;4.93;1.42;;;20.60;99.90;;;;;;5083599;28;45683;-82
2022/05/13 11:35:43;;;;;;;6.10;1.50;;;20.70;99.90;;;;;;5070746;28;47303;-80
2022/05/13 11:38:24;;;;;;;6.10;1.60;;;20.30;99.90;;;;;;5072536;27;38150;-82
2022/05/13 11:41:08;;;;;;;7.20;1.40;;;20.20;99.90;;;;;;5091646;27;39059;-82
2022/05/13 11:43:52;;;;;;;5.70;1.67;;;20.50;99.90;;;;;;5089007;27;47341;-80
2022/05/13 11:46:34;;;;;;;6.65;1.52;;;20.40;99.90;;;;;;5095413;27;39846;-82
2022/05/13 11:49:27;;;;;;;5.55;0.95;;;20.50;99.90;;;;;;5058268;28;36672;-82
2022/05/13 11:51:55;;;;;;;7.15;1.50;;;20.70;99.90;;;;;;5081276;28;48854;-82
2022/05/13 11:54:21;;;;;;;4.65;1.08;;;20.70;99.90;;;;;;5080017;28;39373;-80
2022/05/13 11:56:48;;;;;;;7.43;1.23;;;20.90;99.90;;;;;;5076284;28;38065;-81
2022/05/13 11:59:26;;;;;;;5.10;1.13;;;21.10;99.90;;;;;;5081159;28;37183;-81
2022/05/13 12:01:58;;;;;;;3.28;1.00;;;21.00;99.90;;;;;;5079855;28;39122;-80
2022/05/13 12:04:30;;;;;;;4.32;1.30;;;20.90;99.90;;;;;;5080339;27;38503;-79
2022/05/13 12:07:17;;;;;;;3.65;1.38;;;20.80;99.90;;;;;;5079340;28;38186;-80
2022/05/13 12:09:48;;;;;;;4.90;1.48;;;20.90;99.90;;;;;;5074240;28;47375;-80
2022/05/13 12:12:26;;;;;;;7.30;1.42;;;21.10;99.90;;;;;;5079368;28;39519;-80
2022/05/13 12:15:01;;;;;;;3.55;1.15;;;21.60;99.90;;;;;;5086454;28;38638;-81
2022/05/13 12:17:33;;;;;;;7.07;1.45;;;21.20;99.90;;;;;;5074855;28;37692;-81
2022/05/13 12:20:32;;;;;;;6.88;1.40;;;20.90;99.90;;;;;;5099923;27;38290;-80
2022/05/13 12:23:11;;;;;;;3.53;1.10;;;21.10;99.90;;;;;;5077939;28;47254;-80
2022/05/13 12:25:38;;;;;;;4.70;1.40;;;21.40;99.90;;;;;;5074130;28;48565;-80
2022/05/13 12:28:14;;;;;;;10.32;1.60;;;21.60;99.90;;;;;;5061700;28;38772;-80
2022/05/13 12:30:43;;;;;;;8.35;1.83;;;21.60;99.90;;;;;;5059290;27;37348;-79
2022/05/13 12:33:23;;;;;;;9.23;2.13;;;21.20;99.90;;;;;;5057310;28;40810;-80
2022/05/13 12:39:16;;;;;;;7.82;1.73;;;21.10;99.90;;;;;;5059000;27;49857;-81
2022/05/13 12:41:43;;;;;;;7.03;1.80;;;20.60;99.90;;;;;;5061783;28;48829;-80
2022/05/13 12:44:21;;;;;;;7.20;1.25;;;20.20;99.90;;;;;;5072013;28;39230;-80
2022/05/13 12:46:50;;;;;;;6.75;1.40;;;20.30;99.90;;;;;;5083045;27;37559;-79
2022/05/13 12:49:48;;;;;;;8.00;1.80;;;20.40;99.90;;;;;;5083069;27;38613;-80
2022/05/13 12:52:20;;;;;;;5.28;1.48;;;20.40;99.90;;;;;;5072734;28;37277;-80
2022/05/13 12:54:51;;;;;;;5.85;1.30;;;19.90;99.90;;;;;;5077880;28;39670;-80
2022/05/13 12:57:43;;;;;;;3.88;1.27;;;19.90;99.90;;;;;;5079751;27;38713;-82
2022/05/13 13:00:19;;;;;;;4.85;1.50;;;20.20;99.90;;;;;;5061881;28;36794;-81
2022/05/13 13:02:52;;;;;;;7.40;1.38;;;20.20;99.90;;;;;;5051763;28;38436;-80
2022/05/13 13:05:30;;;;;;;4.55;1.52;;;20.20;99.90;;;;;;5066503;28;40421;-81
2022/05/13 13:08:12;;;;;;;6.63;1.40;;;20.20;99.90;;;;;;5080089;28;40135;-80
2022/05/13 13:11:23;;;;;;;4.90;1.55;;;20.80;99.90;;;;;;5069888;27;48717;-81
2022/05/13 13:14:05;;;;;;;5.15;1.83;;;21.00;99.90;;;;;;5112455;27;47306;-79
2022/05/13 13:16:48;;;;;;;4.57;1.17;;;20.60;99.90;;;;;;5065412;28;48551;-80
2022/05/13 13:19:20;;;;;;;6.97;1.27;;;20.30;99.90;;;;;;5060926;28;38978;-81
2022/05/13 13:21:55;;;;;;;6.10;1.45;;;20.60;99.90;;;;;;5062633;28;37581;-81
2022/05/13 13:24:27;;;;;;;2.97;1.10;;;20.80;99.90;;;;;;5058046;27;37213;-80
2022/05/13 13:26:53;;;;;;;7.60;3.03;;;20.40;99.90;;;;;;5056449;28;38447;-82
2022/05/13 13:29:41;;;;;;;5.30;1.35;;;20.40;99.90;;;;;;5060741;27;38612;-79